Terminal Aerodrome Forecast
Issued by NWS

Home | Current Version | Previous Version | Text Only | Print | Product List | Glossary On
Versions: 1 2 3 4 5 6 7 8 9 10 11 12 13 14
000
FTUS45 KABQ 302300
TAFROW
TAF
KROW 302327Z 3100/3124 17015G22KT P6SM VCSH SCT120 BKN200
     FM310300 22006KT P6SM FEW120 SCT200
     FM311700 17007KT P6SM FEW100 SCT200=

USA.gov is the U.S. government's official web portal to all federal, state and local government web resources and services.